Time;durP1;ratioP1;P1;durP2;ratioP2;P2;SDS_P1;SDS_P2;PMS_P1;PMS_P2;Temp;Humidity;BMP_temperature;BMP_pressure;BME280_temperature;BME280_humidity;BME280_pressure;Samples;Min_cycle;Max_cycle;Signal;HPM_P1;HPM_P2
2024/02/01 09:21:08;;;;;;;62.80;34.60;;;;;;;5.25;100.00;101381.63;107719;1283;543912;-61
2024/02/01 09:23:34;;;;;;;54.40;32.80;;;;;;;7.36;100.00;101366.34;107879;1290;22075;-59
2024/02/01 09:26:00;;;;;;;60.50;34.50;;;;;;;7.94;100.00;101348.38;107928;1290;21999;-60
2024/02/01 09:28:25;;;;;;;49.60;31.20;;;;;;;8.22;100.00;101337.73;107773;1291;24467;-60
2024/02/01 09:30:52;;;;;;;46.40;28.40;;;;;;;8.46;100.00;101329.83;107751;1291;22464;-60
2024/02/01 09:33:19;;;;;;;39.50;25.90;;;;;;;8.68;100.00;101326.95;107834;1291;21998;-60
2024/02/01 09:35:45;;;;;;;41.50;26.10;;;;;;;8.88;100.00;101317.34;107809;1289;139361;-60
2024/02/01 09:38:10;;;;;;;41.60;25.60;;;;;;;8.98;100.00;101313.06;107841;1283;21990;-60
2024/02/01 09:40:42;;;;;;;37.40;24.30;;;;;;;9.24;100.00;101310.82;107924;1289;22023;-60
2024/02/01 09:43:17;;;;;;;38.20;24.30;;;;;;;9.50;100.00;101307.70;107882;1285;21995;-60
2024/02/01 09:45:44;;;;;;;38.50;23.90;;;;;;;9.64;100.00;101302.17;107925;1289;22063;-60
2024/02/01 09:48:15;;;;;;;36.80;23.00;;;;;;;9.76;100.00;101294.71;107976;1289;21990;-60
2024/02/01 09:50:51;;;;;;;41.50;25.50;;;;;;;9.84;100.00;101286.70;107925;1289;23855;-60
2024/02/01 09:53:21;;;;;;;37.50;23.60;;;;;;;9.92;100.00;101277.27;107980;1289;21994;-60
2024/02/01 09:55:51;;;;;;;33.80;22.40;;;;;;;10.03;100.00;101269.08;107897;1289;22002;-60
2024/02/01 09:58:17;;;;;;;37.00;24.60;;;;;;;10.16;100.00;101264.75;107911;1289;21992;-60
2024/02/01 10:00:45;;;;;;;35.50;23.40;;;;;;;10.25;100.00;101258.82;107843;1276;22000;-60
2024/02/01 10:03:14;;;;;;;35.60;22.60;;;;;;;10.32;100.00;101251.12;107856;1289;21976;-60
2024/02/01 10:05:41;;;;;;;33.90;22.30;;;;;;;10.42;100.00;101247.30;107810;1289;21960;-61
2024/02/01 10:08:13;;;;;;;34.20;22.00;;;;;;;10.54;100.00;101245.05;107884;1286;22880;-61
2024/02/01 10:10:43;;;;;;;34.90;22.70;;;;;;;10.63;100.00;101239.10;107861;1289;22003;-59
2024/02/01 10:13:13;;;;;;;33.80;21.00;;;;;;;10.76;100.00;101237.70;107857;1289;21997;-60
2024/02/01 10:15:45;;;;;;;34.20;23.20;;;;;;;10.88;100.00;101234.73;107830;1289;24337;-60
2024/02/01 10:18:21;;;;;;;33.80;23.40;;;;;;;10.99;100.00;101234.73;107955;1289;23008;-59
2024/02/01 10:20:51;;;;;;;37.60;24.10;;;;;;;11.01;100.00;101229.98;107889;1289;22026;-60
2024/02/01 10:23:17;;;;;;;33.90;22.70;;;;;;;11.02;100.00;101227.36;107956;1289;22003;-60
2024/02/01 10:25:46;;;;;;;79.40;41.90;;;;;;;11.02;100.00;101222.61;107916;1289;22027;-61
2024/02/01 10:28:17;;;;;;;39.50;24.40;;;;;;;11.07;100.00;101219.27;107985;1289;22001;-60
2024/02/01 10:30:43;;;;;;;51.00;28.00;;;;;;;11.06;100.00;101215.75;107865;1289;21998;-60
2024/02/01 10:33:09;;;;;;;47.30;29.20;;;;;;;11.07;100.00;101213.82;107896;1289;22160;-61
2024/02/01 10:35:36;;;;;;;47.20;29.70;;;;;;;11.11;99.83;101205.22;107902;1289;22470;-60
2024/02/01 10:38:12;;;;;;;70.80;44.90;;;;;;;11.16;100.00;101200.64;107877;1289;22009;-60
2024/02/01 10:40:50;;;;;;;63.30;45.30;;;;;;;11.22;100.00;101193.08;107803;1289;21995;-59
2024/02/01 10:43:21;;;;;;;62.30;42.40;;;;;;;11.34;100.00;101184.27;107812;1289;21990;-61
2024/02/01 10:46:05;;;;;;;60.60;38.40;;;;;;;11.50;100.00;101178.60;108021;1289;23689;-60
2024/02/01 10:48:48;;;;;;;50.40;31.60;;;;;;;11.62;100.00;101174.33;107840;1289;21999;-60
2024/02/01 10:51:16;;;;;;;36.00;24.70;;;;;;;11.77;100.00;101167.08;107826;1289;22000;-59
2024/02/01 10:53:43;;;;;;;42.40;28.40;;;;;;;11.85;99.69;101157.17;107782;1289;23629;-59
2024/02/01 10:56:14;;;;;;;40.60;28.20;;;;;;;11.94;98.96;101150.80;107829;1289;21990;-59
2024/02/01 10:58:46;;;;;;;35.70;25.50;;;;;;;12.03;99.79;101141.45;107812;1286;21993;-59
2024/02/01 11:01:12;;;;;;;94.60;51.50;;;;;;;12.11;99.76;101134.02;107852;1289;22035;-59
2024/02/01 11:03:59;;;;;;;43.50;28.40;;;;;;;12.11;94.94;101127.34;107819;1289;22032;-59
2024/02/01 11:06:25;;;;;;;30.10;20.50;;;;;;;12.25;95.72;101119.67;107849;1289;21992;-60
2024/02/01 11:08:51;;;;;;;34.70;21.70;;;;;;;12.26;93.02;101112.98;107802;1289;21993;-59
2024/02/01 11:11:18;;;;;;;30.20;19.40;;;;;;;12.30;93.58;101110.48;107817;1289;21996;-59
2024/02/01 11:14:06;;;;;;;30.10;20.20;;;;;;;12.33;91.72;101108.00;107868;1286;22964;-59
2024/02/01 11:16:39;;;;;;;30.60;20.00;;;;;;;12.36;91.74;101100.23;107845;1289;21992;-59
2024/02/01 11:19:10;;;;;;;24.30;18.50;;;;;;;12.43;92.92;101098.77;107875;1289;22025;-60
2024/02/01 11:21:36;;;;;;;27.00;19.50;;;;;;;12.47;90.55;101097.50;107860;1289;22092;-60
2024/02/01 11:24:06;;;;;;;26.30;17.90;;;;;;;12.43;87.97;101099.30;107804;1289;21993;-60
2024/02/01 11:26:39;;;;;;;25.30;17.80;;;;;;;12.49;91.32;101096.26;107801;1289;22002;-60
2024/02/01 11:29:12;;;;;;;26.20;18.00;;;;;;;12.54;91.35;101092.16;107786;1289;21996;-60
2024/02/01 11:31:44;;;;;;;24.80;17.90;;;;;;;12.62;89.79;101091.02;107845;1286;21996;-60
2024/02/01 11:34:12;;;;;;;29.90;20.10;;;;;;;12.70;87.79;101080.23;107849;1289;21992;-60
2024/02/01 11:36:38;;;;;;;30.00;19.90;;;;;;;12.79;89.17;101071.50;107878;1289;22000;-60
2024/02/01 11:39:11;;;;;;;29.70;20.50;;;;;;;12.81;88.54;101061.95;107844;1288;22008;-61
2024/02/01 11:41:37;;;;;;;27.70;20.20;;;;;;;12.77;86.45;101057.61;107834;1289;21991;-60
2024/02/01 11:44:07;;;;;;;33.40;22.20;;;;;;;12.71;86.11;101050.98;107698;1290;22004;-61
2024/02/01 11:46:33;;;;;;;38.70;26.20;;;;;;;12.77;88.59;101051.27;107741;1290;21993;-60
2024/02/01 11:48:58;;;;;;;34.00;22.80;;;;;;;12.77;88.08;101048.97;107736;1278;21997;-60
2024/02/01 11:51:27;;;;;;;29.40;19.60;;;;;;;12.67;82.46;101043.27;107692;1290;21998;-60
2024/02/01 11:53:52;;;;;;;32.60;21.00;;;;;;;12.52;77.85;101038.30;107742;1290;21988;-60
2024/02/01 11:56:21;;;;;;;32.00;21.70;;;;;;;12.44;77.34;101035.73;107060;1289;1002983;-62
2024/02/01 11:58:50;;;;;;;30.10;20.20;;;;;;;12.44;79.36;101028.54;108047;1286;21998;-59
2024/02/01 12:01:16;;;;;;;29.60;18.80;;;;;;;12.36;79.21;101029.84;107903;1289;22454;-60
2024/02/01 12:03:48;;;;;;;27.80;19.00;;;;;;;12.28;78.13;101027.63;107876;1289;21990;-61
2024/02/01 12:06:17;;;;;;;29.10;19.70;;;;;;;12.40;82.85;101019.77;107904;1289;21990;-60
2024/02/01 12:08:44;;;;;;;25.70;18.20;;;;;;;12.43;81.09;101016.74;108022;1287;22000;-60
2024/02/01 12:11:10;;;;;;;31.00;19.40;;;;;;;12.56;84.44;101013.45;107816;1289;23810;-60
2024/02/01 12:13:36;;;;;;;29.20;19.50;;;;;;;12.56;80.90;101011.52;107804;1289;22002;-60
2024/02/01 12:16:04;;;;;;;29.30;19.00;;;;;;;12.48;77.20;101006.30;107668;1289;22085;-61
2024/02/01 12:18:31;;;;;;;30.30;20.50;;;;;;;12.45;77.37;100999.48;107931;1289;23061;-60
2024/02/01 12:20:57;;;;;;;31.90;22.70;;;;;;;12.51;80.65;100995.55;107910;1289;22014;-61
2024/02/01 12:23:22;;;;;;;30.30;21.10;;;;;;;12.56;80.77;100990.74;107882;1289;23658;-60
2024/02/01 12:25:49;;;;;;;34.50;22.40;;;;;;;12.59;80.38;100985.61;107866;1289;21993;-60
2024/02/01 12:28:17;;;;;;;36.00;23.60;;;;;;;12.68;83.36;100988.15;107787;1289;22008;-61
2024/02/01 12:30:44;;;;;;;28.30;19.80;;;;;;;12.62;80.64;100990.85;107819;1286;22002;-60
2024/02/01 12:33:12;;;;;;;29.00;20.80;;;;;;;12.58;79.28;100991.42;107805;1289;21993;-60
2024/02/01 12:35:39;;;;;;;29.70;20.70;;;;;;;12.70;82.86;100991.12;107791;1289;22001;-60
2024/02/01 12:38:06;;;;;;;25.70;18.30;;;;;;;12.77;84.79;100990.86;107845;1289;22101;-60
2024/02/01 12:40:32;;;;;;;29.20;20.20;;;;;;;12.75;81.79;100993.35;107888;1289;21993;-60
2024/02/01 12:43:01;;;;;;;28.40;19.20;;;;;;;12.79;82.42;100993.66;107831;1289;21991;-60
2024/02/01 12:45:27;;;;;;;30.10;20.50;;;;;;;12.76;82.68;100999.33;107781;1289;21994;-61
2024/02/01 12:47:53;;;;;;;29.50;20.70;;;;;;;12.69;81.15;100996.60;107770;1289;21993;-62
2024/02/01 12:50:20;;;;;;;29.90;21.10;;;;;;;12.72;83.39;100998.32;107891;1289;21989;-60
2024/02/01 12:52:45;;;;;;;28.10;19.60;;;;;;;12.74;84.06;100999.71;107911;1289;22824;-60
2024/02/01 12:55:11;;;;;;;27.80;18.90;;;;;;;12.71;82.88;100995.52;107730;1289;21990;-60
2024/02/01 12:57:37;;;;;;;29.30;19.40;;;;;;;12.72;82.31;100988.98;107798;1289;21999;-62
2024/02/01 13:00:05;;;;;;;28.10;19.60;;;;;;;12.77;83.45;100985.05;107838;1289;21998;-60
2024/02/01 13:02:32;;;;;;;36.10;21.90;;;;;;;12.76;82.41;100978.73;107858;1289;21990;-61
2024/02/01 13:04:58;;;;;;;26.60;18.60;;;;;;;12.78;83.93;100980.30;107953;1289;22005;-60
2024/02/01 13:07:23;;;;;;;29.50;20.80;;;;;;;12.72;82.91;100978.42;107965;1289;22459;-60
2024/02/01 13:09:49;;;;;;;26.20;19.20;;;;;;;12.69;83.67;100977.73;107954;1289;22002;-60
2024/02/01 13:12:24;;;;;;;30.50;20.90;;;;;;;12.69;83.68;100970.88;107806;1289;21991;-60
2024/02/01 13:15:00;;;;;;;31.10;20.70;;;;;;;12.66;82.63;100965.28;107697;1289;21994;-60
2024/02/01 13:17:36;;;;;;;32.50;21.90;;;;;;;12.65;83.33;100963.70;107804;1289;22008;-60
2024/02/01 13:20:16;;;;;;;34.40;22.60;;;;;;;12.63;81.80;100966.90;107807;1289;22002;-61
2024/02/01 13:22:45;;;;;;;28.40;19.60;;;;;;;12.57;81.13;100966.42;107802;1289;21982;-60
2024/02/01 13:25:18;;;;;;;34.20;21.80;;;;;;;12.53;82.40;100964.20;107834;1289;21990;-60
2024/02/01 13:27:48;;;;;;;44.70;28.00;;;;;;;12.42;81.07;100961.67;107802;1289;22199;-61
2024/02/01 13:30:16;;;;;;;42.70;26.90;;;;;;;12.39;81.93;100962.06;107895;1289;21991;-61
2024/02/01 13:32:43;;;;;;;41.10;26.90;;;;;;;12.33;82.06;100961.41;107871;1289;21998;-62
2024/02/01 13:35:09;;;;;;;68.60;38.10;;;;;;;12.32;83.27;100965.66;107959;1289;21989;-60
2024/02/01 13:37:34;;;;;;;74.80;37.20;;;;;;;12.33;85.46;100962.46;107955;1289;22219;-61
2024/02/01 13:40:14;;;;;;;268.90;91.20;;;;;;;12.34;85.55;100959.13;107738;1289;22466;-61
2024/02/01 13:42:41;;;;;;;116.20;49.10;;;;;;;12.31;85.99;100953.52;107858;1289;21993;-60
2024/02/01 13:45:07;;;;;;;102.30;46.20;;;;;;;12.26;85.68;100952.34;107950;1289;22046;-62
2024/02/01 13:47:34;;;;;;;68.80;35.80;;;;;;;12.19;85.89;100945.71;107838;1289;22004;-60
2024/02/01 13:50:54;;;;;;;123.50;66.30;;;;;;;12.00;85.02;100935.33;107499;1289;544576;-58
2024/02/01 13:53:19;;;;;;;42.90;27.40;;;;;;;11.98;84.89;100926.73;107797;1293;22092;-58
2024/02/01 13:55:45;;;;;;;101.60;50.90;;;;;;;11.90;83.48;100920.62;107820;1294;22019;-58
2024/02/01 13:58:11;;;;;;;116.10;61.70;;;;;;;11.87;85.02;100912.39;107795;1294;24038;-59
2024/02/01 14:00:36;;;;;;;59.80;36.20;;;;;;;11.79;84.72;100904.20;108026;1294;21993;-60
2024/02/01 14:03:03;;;;;;;52.80;31.80;;;;;;;11.70;84.41;100898.30;107870;1294;23312;-60
2024/02/01 14:05:29;;;;;;;63.80;36.70;;;;;;;11.61;84.27;100895.20;107859;1292;218503;-59
2024/02/01 14:07:55;;;;;;;62.00;36.40;;;;;;;11.55;84.95;100889.27;107993;1292;22001;-60
